sensor_id;sensor_type;location;lat;lon;timestamp;pressure;altitude;pressure_sealevel;temperature;humidity
19210;BME280;9738;51.654;14.238;2023-05-07T00:00:11;101033.78;;;8.16;100.00
19210;BME280;9738;51.654;14.238;2023-05-07T00:02:37;101039.13;;;8.16;100.00
19210;BME280;9738;51.654;14.238;2023-05-07T00:05:03;101039.13;;;8.16;100.00
19210;BME280;9738;51.654;14.238;2023-05-07T00:07:30;101032.69;;;8.18;100.00
19210;BME280;9738;51.654;14.238;2023-05-07T00:09:56;101035.34;;;8.18;100.00
19210;BME280;9738;51.654;14.238;2023-05-07T00:12:21;101034.38;;;8.19;100.00
19210;BME280;9738;51.654;14.238;2023-05-07T00:14:48;101031.72;;;8.19;100.00
19210;BME280;9738;51.654;14.238;2023-05-07T00:17:13;101030.53;;;8.23;100.00
19210;BME280;9738;51.654;14.238;2023-05-07T00:19:39;101038.50;;;8.23;100.00
19210;BME280;9738;51.654;14.238;2023-05-07T00:22:07;101044.53;;;8.25;100.00
19210;BME280;9738;51.654;14.238;2023-05-07T00:24:32;101036.69;;;8.24;100.00
19210;BME280;9738;51.654;14.238;2023-05-07T00:26:58;101039.34;;;8.24;100.00
19210;BME280;9738;51.654;14.238;2023-05-07T00:29:25;101041.28;;;8.22;100.00
19210;BME280;9738;51.654;14.238;2023-05-07T00:31:50;101044.53;;;8.25;100.00
19210;BME280;9738;51.654;14.238;2023-05-07T00:34:16;101042.00;;;8.24;100.00
19210;BME280;9738;51.654;14.238;2023-05-07T00:36:43;101046.22;;;8.26;100.00
19210;BME280;9738;51.654;14.238;2023-05-07T00:39:08;101046.13;;;8.28;100.00
19210;BME280;9738;51.654;14.238;2023-05-07T00:41:34;101041.03;;;8.25;100.00
19210;BME280;9738;51.654;14.238;2023-05-07T00:44:00;101041.88;;;8.25;100.00
19210;BME280;9738;51.654;14.238;2023-05-07T00:46:28;101039.34;;;8.24;100.00
19210;BME280;9738;51.654;14.238;2023-05-07T00:48:55;101046.63;;;8.22;100.00
19210;BME280;9738;51.654;14.238;2023-05-07T00:51:23;101044.66;;;8.24;100.00
19210;BME280;9738;51.654;14.238;2023-05-07T00:53:50;101042.97;;;8.23;100.00
19210;BME280;9738;51.654;14.238;2023-05-07T00:56:16;101042.13;;;8.22;100.00
19210;BME280;9738;51.654;14.238;2023-05-07T00:58:43;101050.59;;;8.16;100.00
19210;BME280;9738;51.654;14.238;2023-05-07T01:01:09;101047.09;;;8.16;100.00
19210;BME280;9738;51.654;14.238;2023-05-07T01:03:35;101045.28;;;8.16;100.00
19210;BME280;9738;51.654;14.238;2023-05-07T01:06:02;101050.47;;;8.18;100.00
19210;BME280;9738;51.654;14.238;2023-05-07T01:08:29;101056.06;;;8.15;100.00
19210;BME280;9738;51.654;14.238;2023-05-07T01:10:56;101049.75;;;8.16;100.00
19210;BME280;9738;51.654;14.238;2023-05-07T01:13:24;101056.06;;;8.15;100.00
19210;BME280;9738;51.654;14.238;2023-05-07T01:15:50;101042.63;;;8.16;100.00
19210;BME280;9738;51.654;14.238;2023-05-07T01:18:16;101054.94;;;8.17;100.00
19210;BME280;9738;51.654;14.238;2023-05-07T01:20:42;101053.00;;;8.19;100.00
19210;BME280;9738;51.654;14.238;2023-05-07T01:23:09;101058.22;;;8.21;100.00
19210;BME280;9738;51.654;14.238;2023-05-07T01:25:36;101056.63;;;8.18;100.00
19210;BME280;9738;51.654;14.238;2023-05-07T01:28:02;101061.97;;;8.18;100.00
19210;BME280;9738;51.654;14.238;2023-05-07T01:30:28;101060.28;;;8.17;100.00
19210;BME280;9738;51.654;14.238;2023-05-07T01:33:02;101061.13;;;8.18;100.00
19210;BME280;9738;51.654;14.238;2023-05-07T01:35:36;101056.06;;;8.15;100.00
19210;BME280;9738;51.654;14.238;2023-05-07T01:38:03;101055.09;;;8.16;100.00
19210;BME280;9738;51.654;14.238;2023-05-07T01:40:32;101060.28;;;8.17;100.00
19210;BME280;9738;51.654;14.238;2023-05-07T01:42:59;101064.75;;;8.17;100.00
19210;BME280;9738;51.654;14.238;2023-05-07T01:45:25;101061.97;;;8.18;100.00
19210;BME280;9738;51.654;14.238;2023-05-07T01:47:53;101055.78;;;8.18;100.00
19210;BME280;9738;51.654;14.238;2023-05-07T01:50:20;101054.25;;;8.15;100.00
19210;BME280;9738;51.654;14.238;2023-05-07T01:52:47;101063.78;;;8.18;100.00
19210;BME280;9738;51.654;14.238;2023-05-07T01:55:13;101058.47;;;8.18;100.00
19210;BME280;9738;51.654;14.238;2023-05-07T01:57:39;101065.47;;;8.19;100.00
19210;BME280;9738;51.654;14.238;2023-05-07T02:00:05;101066.22;;;8.21;100.00
19210;BME280;9738;51.654;14.238;2023-05-07T02:02:32;101070.78;;;8.19;100.00
19210;BME280;9738;51.654;14.238;2023-05-07T02:04:59;101066.44;;;8.18;100.00
19210;BME280;9738;51.654;14.238;2023-05-07T02:07:25;101061.38;;;8.15;100.00
19210;BME280;9738;51.654;14.238;2023-05-07T02:09:52;101062.22;;;8.15;100.00
19210;BME280;9738;51.654;14.238;2023-05-07T02:12:18;101059.66;;;8.13;100.00
19210;BME280;9738;51.654;14.238;2023-05-07T02:14:43;101062.31;;;8.13;100.00
19210;BME280;9738;51.654;14.238;2023-05-07T02:17:10;101058.72;;;8.15;100.00
19210;BME280;9738;51.654;14.238;2023-05-07T02:19:35;101063.53;;;8.09;100.00
19210;BME280;9738;51.654;14.238;2023-05-07T02:22:01;101060.75;;;8.11;100.00
19210;BME280;9738;51.654;14.238;2023-05-07T02:24:28;101063.16;;;8.14;100.00
19210;BME280;9738;51.654;14.238;2023-05-07T02:26:53;101063.06;;;8.16;100.00
19210;BME280;9738;51.654;14.238;2023-05-07T02:29:19;101063.06;;;8.16;100.00
19210;BME280;9738;51.654;14.238;2023-05-07T02:31:45;101066.44;;;8.18;100.00
19210;BME280;9738;51.654;14.238;2023-05-07T02:34:11;101070.78;;;8.19;100.00
19210;BME280;9738;51.654;14.238;2023-05-07T02:36:37;101061.97;;;8.18;100.00
19210;BME280;9738;51.654;14.238;2023-05-07T02:39:03;101067.28;;;8.18;100.00
19210;BME280;9738;51.654;14.238;2023-05-07T02:41:29;101068.25;;;8.17;100.00
19210;BME280;9738;51.654;14.238;2023-05-07T02:43:55;101069.22;;;8.16;100.00
19210;BME280;9738;51.654;14.238;2023-05-07T02:46:21;101071.03;;;8.16;100.00
19210;BME280;9738;51.654;14.238;2023-05-07T02:48:47;101079.75;;;8.18;100.00
19210;BME280;9738;51.654;14.238;2023-05-07T02:51:14;101074.28;;;8.19;100.00
19210;BME280;9738;51.654;14.238;2023-05-07T02:53:40;101075.13;;;8.20;100.00
19210;BME280;9738;51.654;14.238;2023-05-07T02:56:06;101079.53;;;8.21;100.00
19210;BME280;9738;51.654;14.238;2023-05-07T02:58:32;101072.25;;;8.23;100.00
19210;BME280;9738;51.654;14.238;2023-05-07T03:00:58;101065.97;;;8.24;100.00
19210;BME280;9738;51.654;14.238;2023-05-07T03:03:24;101064.50;;;8.20;100.00
19210;BME280;9738;51.654;14.238;2023-05-07T03:05:50;101056.63;;;8.18;100.00
19210;BME280;9738;51.654;14.238;2023-05-07T03:08:16;101052.28;;;8.17;100.00
19210;BME280;9738;51.654;14.238;2023-05-07T03:10:42;101063.06;;;8.16;100.00
19210;BME280;9738;51.654;14.238;2023-05-07T03:13:08;101061.13;;;8.18;100.00
19210;BME280;9738;51.654;14.238;2023-05-07T03:15:34;101068.13;;;8.19;100.00
19210;BME280;9738;51.654;14.238;2023-05-07T03:18:00;101072.84;;;8.15;100.00
19210;BME280;9738;51.654;14.238;2023-05-07T03:20:26;101062.22;;;8.15;100.00
19210;BME280;9738;51.654;14.238;2023-05-07T03:22:52;101062.22;;;8.15;100.00
19210;BME280;9738;51.654;14.238;2023-05-07T03:25:18;101064.97;;;8.13;100.00
19210;BME280;9738;51.654;14.238;2023-05-07T03:27:44;101068.25;;;8.17;100.00
19210;BME280;9738;51.654;14.238;2023-05-07T03:30:11;101071.13;;;8.14;100.00
19210;BME280;9738;51.654;14.238;2023-05-07T03:32:36;101069.56;;;8.11;100.00
19210;BME280;9738;51.654;14.238;2023-05-07T03:35:02;101075.03;;;8.10;100.00
19210;BME280;9738;51.654;14.238;2023-05-07T03:37:29;101075.88;;;8.10;100.00
19210;BME280;9738;51.654;14.238;2023-05-07T03:39:55;101077.81;;;8.08;100.00
19210;BME280;9738;51.654;14.238;2023-05-07T03:42:20;101088.47;;;8.08;100.00
19210;BME280;9738;51.654;14.238;2023-05-07T03:44:47;101087.72;;;8.06;100.00
19210;BME280;9738;51.654;14.238;2023-05-07T03:47:13;101087.72;;;8.06;100.00
19210;BME280;9738;51.654;14.238;2023-05-07T03:49:39;101084.94;;;8.08;100.00
19210;BME280;9738;51.654;14.238;2023-05-07T03:52:06;101090.28;;;8.08;100.00
19210;BME280;9738;51.654;14.238;2023-05-07T03:54:32;101092.81;;;8.09;100.00
19210;BME280;9738;51.654;14.238;2023-05-07T03:56:58;101095.47;;;8.09;100.00
19210;BME280;9738;51.654;14.238;2023-05-07T03:59:24;101099.81;;;8.10;100.00
19210;BME280;9738;51.654;14.238;2023-05-07T04:01:50;101101.75;;;8.08;100.00
19210;BME280;9738;51.654;14.238;2023-05-07T04:04:15;101102.69;;;8.07;100.00
19210;BME280;9738;51.654;14.238;2023-05-07T04:06:42;101110.81;;;8.06;100.00
19210;BME280;9738;51.654;14.238;2023-05-07T04:09:08;101117.22;;;8.03;100.00
19210;BME280;9738;51.654;14.238;2023-05-07T04:11:35;101113.72;;;8.03;100.00
19210;BME280;9738;51.654;14.238;2023-05-07T04:14:02;101114.56;;;8.03;100.00
19210;BME280;9738;51.654;14.238;2023-05-07T04:16:27;101111.91;;;8.03;100.00
19210;BME280;9738;51.654;14.238;2023-05-07T04:18:53;101113.72;;;8.03;100.00
19210;BME280;9738;51.654;14.238;2023-05-07T04:21:20;101115.28;;;8.05;100.00
19210;BME280;9738;51.654;14.238;2023-05-07T04:23:47;101114.44;;;8.05;100.00
19210;BME280;9738;51.654;14.238;2023-05-07T04:26:14;101120.59;;;8.05;100.00
19210;BME280;9738;51.654;14.238;2023-05-07T04:28:40;101109.59;;;7.99;100.00
19210;BME280;9738;51.654;14.238;2023-05-07T04:31:06;101126.41;;;7.99;100.00
19210;BME280;9738;51.654;14.238;2023-05-07T04:33:32;101128.94;;;8.01;100.00
19210;BME280;9738;51.654;14.238;2023-05-07T04:36:02;101131.38;;;8.04;100.00
19210;BME280;9738;51.654;14.238;2023-05-07T04:38:30;101136.69;;;8.04;100.00
19210;BME280;9738;51.654;14.238;2023-05-07T04:40:56;101141.38;;;8.00;100.00
19210;BME280;9738;51.654;14.238;2023-05-07T04:43:23;101147.47;;;8.02;100.00
19210;BME280;9738;51.654;14.238;2023-05-07T04:45:52;101147.47;;;8.02;100.00
19210;BME280;9738;51.654;14.238;2023-05-07T04:48:17;101147.22;;;8.05;100.00
19210;BME280;9738;51.654;14.238;2023-05-07T04:50:51;101147.94;;;8.07;100.00
19210;BME280;9738;51.654;14.238;2023-05-07T04:53:18;101156.78;;;8.08;100.00
19210;BME280;9738;51.654;14.238;2023-05-07T04:55:44;101151.47;;;8.08;100.00
19210;BME280;9738;51.654;14.238;2023-05-07T04:58:11;101162.19;;;8.06;100.00
19210;BME280;9738;51.654;14.238;2023-05-07T05:00:38;101157.72;;;8.07;100.00
19210;BME280;9738;51.654;14.238;2023-05-07T05:03:09;101161.22;;;8.07;100.00
19210;BME280;9738;51.654;14.238;2023-05-07T05:05:35;101155.91;;;8.07;100.00
19210;BME280;9738;51.654;14.238;2023-05-07T05:08:01;101158.56;;;8.07;100.00
19210;BME280;9738;51.654;14.238;2023-05-07T05:10:27;101163.16;;;8.05;100.00
19210;BME280;9738;51.654;14.238;2023-05-07T05:12:53;101167.38;;;7.97;100.00
19210;BME280;9738;51.654;14.238;2023-05-07T05:15:19;101170.38;;;7.92;100.00
19210;BME280;9738;51.654;14.238;2023-05-07T05:17:44;101163.13;;;7.94;100.00
19210;BME280;9738;51.654;14.238;2023-05-07T05:20:11;101158.56;;;7.96;100.00
19210;BME280;9738;51.654;14.238;2023-05-07T05:22:37;101167.00;;;8.01;100.00
19210;BME280;9738;51.654;14.238;2023-05-07T05:25:03;101176.34;;;8.07;100.00
19210;BME280;9738;51.654;14.238;2023-05-07T05:27:29;101183.25;;;8.09;100.00
19210;BME280;9738;51.654;14.238;2023-05-07T05:29:55;101183.47;;;8.06;100.00
19210;BME280;9738;51.654;14.238;2023-05-07T05:32:21;101179.00;;;8.07;100.00
19210;BME280;9738;51.654;14.238;2023-05-07T05:34:48;101187.84;;;8.07;100.00
19210;BME280;9738;51.654;14.238;2023-05-07T05:37:13;101189.56;;;8.08;100.00
19210;BME280;9738;51.654;14.238;2023-05-07T05:39:39;101192.94;;;8.10;100.00
19210;BME280;9738;51.654;14.238;2023-05-07T05:42:06;101201.88;;;8.09;100.00
19210;BME280;9738;51.654;14.238;2023-05-07T05:44:31;101194.97;;;8.07;100.00
19210;BME280;9738;51.654;14.238;2023-05-07T05:46:57;101198.84;;;8.03;100.00
19210;BME280;9738;51.654;14.238;2023-05-07T05:49:25;101193.41;;;8.04;100.00
19210;BME280;9738;51.654;14.238;2023-05-07T05:51:51;101191.59;;;8.05;100.00
19210;BME280;9738;51.654;14.238;2023-05-07T05:54:17;101194.03;;;8.08;100.00
19210;BME280;9738;51.654;14.238;2023-05-07T05:56:43;101190.28;;;8.10;100.00
19210;BME280;9738;51.654;14.238;2023-05-07T05:59:09;101193.44;;;8.16;100.00
19210;BME280;9738;51.654;14.238;2023-05-07T06:01:35;101196.59;;;8.21;100.00
19210;BME280;9738;51.654;14.238;2023-05-07T06:04:02;101193.69;;;8.24;100.00
19210;BME280;9738;51.654;14.238;2023-05-07T06:06:27;101189.84;;;8.28;100.00
19210;BME280;9738;51.654;14.238;2023-05-07T06:08:53;101196.59;;;8.32;100.00
19210;BME280;9738;51.654;14.238;2023-05-07T06:11:20;101199.03;;;8.35;100.00
19210;BME280;9738;51.654;14.238;2023-05-07T06:13:46;101191.28;;;8.32;100.00
19210;BME280;9738;51.654;14.238;2023-05-07T06:16:11;101185.00;;;8.33;100.00
19210;BME280;9738;51.654;14.238;2023-05-07T06:18:38;101188.41;;;8.35;100.00
19210;BME280;9738;51.654;14.238;2023-05-07T06:21:04;101188.53;;;8.33;100.00
19210;BME280;9738;51.654;14.238;2023-05-07T06:23:29;101191.28;;;8.32;100.00
19210;BME280;9738;51.654;14.238;2023-05-07T06:25:56;101200.97;;;8.33;100.00
19210;BME280;9738;51.654;14.238;2023-05-07T06:28:22;101202.69;;;8.34;100.00
19210;BME280;9738;51.654;14.238;2023-05-07T06:30:48;101201.50;;;8.38;100.00
19210;BME280;9738;51.654;14.238;2023-05-07T06:33:16;101204.31;;;8.48;100.00
19210;BME280;9738;51.654;14.238;2023-05-07T06:35:41;101207.47;;;8.53;100.00
19210;BME280;9738;51.654;14.238;2023-05-07T06:38:07;101210.72;;;8.56;100.00
19210;BME280;9738;51.654;14.238;2023-05-07T06:40:34;101215.31;;;8.54;100.00
19210;BME280;9738;51.654;14.238;2023-05-07T06:42:59;101215.06;;;8.57;100.00
19210;BME280;9738;51.654;14.238;2023-05-07T06:45:25;101218.22;;;8.62;100.00
19210;BME280;9738;51.654;14.238;2023-05-07T06:47:52;101225.63;;;8.59;100.00
19210;BME280;9738;51.654;14.238;2023-05-07T06:50:17;101235.19;;;8.61;100.00
19210;BME280;9738;51.654;14.238;2023-05-07T06:52:43;101241.22;;;8.63;100.00
19210;BME280;9738;51.654;14.238;2023-05-07T06:55:10;101245.56;;;8.64;100.00
19210;BME280;9738;51.654;14.238;2023-05-07T06:57:37;101246.31;;;8.66;100.00
19210;BME280;9738;51.654;14.238;2023-05-07T07:00:03;101243.75;;;8.65;100.00
19210;BME280;9738;51.654;14.238;2023-05-07T07:02:30;101255.75;;;8.71;100.00
19210;BME280;9738;51.654;14.238;2023-05-07T07:04:56;101249.34;;;8.73;100.00
19210;BME280;9738;51.654;14.238;2023-05-07T07:07:21;101254.22;;;8.79;100.00
19210;BME280;9738;51.654;14.238;2023-05-07T07:09:49;101249.25;;;8.86;100.00
19210;BME280;9738;51.654;14.238;2023-05-07T07:12:14;101250.59;;;8.91;100.00
19210;BME280;9738;51.654;14.238;2023-05-07T07:14:40;101247.78;;;8.93;100.00
19210;BME280;9738;51.654;14.238;2023-05-07T07:17:06;101252.41;;;8.91;100.00
19210;BME280;9738;51.654;14.238;2023-05-07T07:19:32;101251.28;;;8.93;100.00
19210;BME280;9738;51.654;14.238;2023-05-07T07:21:58;101251.28;;;8.93;100.00
19210;BME280;9738;51.654;14.238;2023-05-07T07:24:24;101247.44;;;8.98;100.00
19210;BME280;9738;51.654;14.238;2023-05-07T07:26:50;101241.34;;;8.96;100.00
19210;BME280;9738;51.654;14.238;2023-05-07T07:29:17;101248.13;;;8.88;100.00
19210;BME280;9738;51.654;14.238;2023-05-07T07:31:44;101252.88;;;8.85;100.00
19210;BME280;9738;51.654;14.238;2023-05-07T07:34:10;101241.72;;;8.80;100.00
19210;BME280;9738;51.654;14.238;2023-05-07T07:36:36;101243.56;;;8.79;100.00
19210;BME280;9738;51.654;14.238;2023-05-07T07:39:02;101256.25;;;8.76;100.00
19210;BME280;9738;51.654;14.238;2023-05-07T07:41:28;101259.38;;;8.70;100.00
19210;BME280;9738;51.654;14.238;2023-05-07T07:43:53;101257.69;;;8.69;100.00
19210;BME280;9738;51.654;14.238;2023-05-07T07:46:20;101261.56;;;8.64;100.00
19210;BME280;9738;51.654;14.238;2023-05-07T07:48:46;101261.56;;;8.64;100.00
19210;BME280;9738;51.654;14.238;2023-05-07T07:51:11;101267.38;;;8.70;100.00
19210;BME280;9738;51.654;14.238;2023-05-07T07:53:38;101267.63;;;8.78;100.00
19210;BME280;9738;51.654;14.238;2023-05-07T07:56:04;101269.47;;;8.88;100.00
19210;BME280;9738;51.654;14.238;2023-05-07T07:58:30;101267.63;;;8.89;100.00
19210;BME280;9738;51.654;14.238;2023-05-07T08:00:56;101265.72;;;8.91;100.00
19210;BME280;9738;51.654;14.238;2023-05-07T08:03:22;101278.56;;;8.97;100.00
19210;BME280;9738;51.654;14.238;2023-05-07T08:05:48;101280.22;;;9.09;100.00
19210;BME280;9738;51.654;14.238;2023-05-07T08:08:16;101276.00;;;9.18;100.00
19210;BME280;9738;51.654;14.238;2023-05-07T08:10:42;101278.31;;;9.23;100.00
19210;BME280;9738;51.654;14.238;2023-05-07T08:13:08;101290.41;;;9.27;100.00
19210;BME280;9738;51.654;14.238;2023-05-07T08:15:34;101276.84;;;9.30;100.00
19210;BME280;9738;51.654;14.238;2023-05-07T08:20:26;101281.53;;;9.60;100.00
19210;BME280;9738;51.654;14.238;2023-05-07T08:22:54;101280.88;;;9.79;100.00
19210;BME280;9738;51.654;14.238;2023-05-07T08:25:19;101283.13;;;9.94;100.00
19210;BME280;9738;51.654;14.238;2023-05-07T08:27:45;101273.28;;;10.06;100.00
19210;BME280;9738;51.654;14.238;2023-05-07T08:30:12;101285.22;;;10.23;100.00
19210;BME280;9738;51.654;14.238;2023-05-07T08:32:38;101284.47;;;10.32;100.00
19210;BME280;9738;51.654;14.238;2023-05-07T08:35:04;101288.47;;;10.38;100.00
19210;BME280;9738;51.654;14.238;2023-05-07T08:37:31;101285.13;;;10.45;100.00
19210;BME280;9738;51.654;14.238;2023-05-07T08:39:57;101300.78;;;10.50;100.00
19210;BME280;9738;51.654;14.238;2023-05-07T08:42:23;101286.44;;;10.51;100.00
19210;BME280;9738;51.654;14.238;2023-05-07T08:44:51;101285.13;;;10.45;100.00
19210;BME280;9738;51.654;14.238;2023-05-07T08:47:22;101295.94;;;10.44;100.00
19210;BME280;9738;51.654;14.238;2023-05-07T08:49:48;101286.22;;;10.43;100.00
19210;BME280;9738;51.654;14.238;2023-05-07T08:52:15;101285.78;;;10.38;100.00
19210;BME280;9738;51.654;14.238;2023-05-07T08:54:41;101288.97;;;10.32;100.00
19210;BME280;9738;51.654;14.238;2023-05-07T08:57:08;101289.47;;;10.25;100.00
19210;BME280;9738;51.654;14.238;2023-05-07T08:59:34;101286.56;;;10.17;100.00
19210;BME280;9738;51.654;14.238;2023-05-07T09:02:00;101288.38;;;10.17;100.00
19210;BME280;9738;51.654;14.238;2023-05-07T09:04:25;101295.41;;;10.29;100.00
19210;BME280;9738;51.654;14.238;2023-05-07T09:06:52;101293.19;;;10.34;100.00
19210;BME280;9738;51.654;14.238;2023-05-07T09:09:17;101294.38;;;10.41;100.00
19210;BME280;9738;51.654;14.238;2023-05-07T09:11:44;101301.72;;;10.49;100.00
19210;BME280;9738;51.654;14.238;2023-05-07T09:14:10;101299.53;;;10.54;100.00
19210;BME280;9738;51.654;14.238;2023-05-07T09:16:36;101298.75;;;10.63;100.00
19210;BME280;9738;51.654;14.238;2023-05-07T09:19:02;101293.47;;;10.73;100.00
19210;BME280;9738;51.654;14.238;2023-05-07T09:21:28;101292.75;;;10.71;100.00
19210;BME280;9738;51.654;14.238;2023-05-07T09:23:55;101292.38;;;10.75;100.00
19210;BME280;9738;51.654;14.238;2023-05-07T09:26:21;101303.31;;;10.72;100.00
19210;BME280;9738;51.654;14.238;2023-05-07T09:28:48;101298.22;;;10.69;100.00
19210;BME280;9738;51.654;14.238;2023-05-07T09:31:14;101304.66;;;10.67;100.00
19210;BME280;9738;51.654;14.238;2023-05-07T09:33:40;101309.16;;;10.66;100.00
19210;BME280;9738;51.654;14.238;2023-05-07T09:36:07;101313.94;;;10.63;100.00
19210;BME280;9738;51.654;14.238;2023-05-07T09:38:35;101319.59;;;10.69;100.00
19210;BME280;9738;51.654;14.238;2023-05-07T09:41:13;101312.34;;;10.81;100.00
19210;BME280;9738;51.654;14.238;2023-05-07T09:43:40;101317.22;;;10.97;100.00
19210;BME280;9738;51.654;14.238;2023-05-07T09:46:08;101307.75;;;11.14;100.00
19210;BME280;9738;51.654;14.238;2023-05-07T09:48:37;101302.91;;;11.38;100.00
19210;BME280;9738;51.654;14.238;2023-05-07T09:51:21;101317.63;;;11.63;100.00
19210;BME280;9738;51.654;14.238;2023-05-07T09:53:48;101310.53;;;11.83;100.00
19210;BME280;9738;51.654;14.238;2023-05-07T09:56:14;101304.66;;;11.99;100.00
19210;BME280;9738;51.654;14.238;2023-05-07T09:58:43;101302.13;;;12.16;100.00
19210;BME280;9738;51.654;14.238;2023-05-07T10:01:11;101305.06;;;12.33;100.00
19210;BME280;9738;51.654;14.238;2023-05-07T10:03:40;101305.81;;;12.35;100.00
19210;BME280;9738;51.654;14.238;2023-05-07T10:06:11;101304.66;;;12.28;100.00
19210;BME280;9738;51.654;14.238;2023-05-07T10:08:39;101316.50;;;12.25;100.00
19210;BME280;9738;51.654;14.238;2023-05-07T10:11:05;101313.81;;;12.06;100.00
19210;BME280;9738;51.654;14.238;2023-05-07T10:13:34;101314.06;;;11.83;100.00
19210;BME280;9738;51.654;14.238;2023-05-07T10:16:03;101314.41;;;11.69;100.00
19210;BME280;9738;51.654;14.238;2023-05-07T10:18:33;101312.56;;;11.60;100.00
19210;BME280;9738;51.654;14.238;2023-05-07T10:21:11;101316.03;;;11.51;100.00
19210;BME280;9738;51.654;14.238;2023-05-07T10:23:49;101318.88;;;11.49;100.00
19210;BME280;9738;51.654;14.238;2023-05-07T10:26:17;101316.03;;;11.51;100.00
19210;BME280;9738;51.654;14.238;2023-05-07T10:28:46;101315.25;;;11.60;100.00
19210;BME280;9738;51.654;14.238;2023-05-07T10:34:09;101317.53;;;11.74;100.00
19210;BME280;9738;51.654;14.238;2023-05-07T10:36:36;101324.31;;;11.78;100.00
19210;BME280;9738;51.654;14.238;2023-05-07T10:39:02;101317.38;;;11.76;100.00
19210;BME280;9738;51.654;14.238;2023-05-07T10:41:29;101325.97;;;11.70;100.00
19210;BME280;9738;51.654;14.238;2023-05-07T10:43:54;101322.88;;;11.64;100.00
19210;BME280;9738;51.654;14.238;2023-05-07T10:46:22;101327.63;;;11.61;100.00
19210;BME280;9738;51.654;14.238;2023-05-07T10:51:27;101324.81;;;11.53;100.00
19210;BME280;9738;51.654;14.238;2023-05-07T10:56:35;101319.47;;;11.53;100.00
19210;BME280;9738;51.654;14.238;2023-05-07T11:02:02;101327.34;;;11.54;100.00
19210;BME280;9738;51.654;14.238;2023-05-07T11:04:30;101322.56;;;11.58;100.00
19210;BME280;9738;51.654;14.238;2023-05-07T11:12:18;101327.34;;;11.64;100.00
19210;BME280;9738;51.654;14.238;2023-05-07T11:15:08;101332.59;;;11.75;100.00
19210;BME280;9738;51.654;14.238;2023-05-07T11:17:35;101334.69;;;11.62;100.00
19210;BME280;9738;51.654;14.238;2023-05-07T11:20:17;101337.44;;;11.51;100.00
19210;BME280;9738;51.654;14.238;2023-05-07T11:22:44;101335.75;;;11.50;100.00
19210;BME280;9738;51.654;14.238;2023-05-07T11:25:09;101335.59;;;11.42;100.00
19210;BME280;9738;51.654;14.238;2023-05-07T11:27:36;101332.06;;;11.41;100.00
19210;BME280;9738;51.654;14.238;2023-05-07T11:30:02;101337.69;;;11.38;100.00
19210;BME280;9738;51.654;14.238;2023-05-07T11:32:30;101339.94;;;11.33;100.00
19210;BME280;9738;51.654;14.238;2023-05-07T11:35:00;101337.78;;;11.27;100.00
19210;BME280;9738;51.654;14.238;2023-05-07T11:37:27;101336.34;;;11.23;100.00
19210;BME280;9738;51.654;14.238;2023-05-07T11:40:08;101334.34;;;11.15;100.00
19210;BME280;9738;51.654;14.238;2023-05-07T11:42:37;101334.28;;;11.26;100.00
19210;BME280;9738;51.654;14.238;2023-05-07T11:45:03;101340.50;;;11.36;100.00
19210;BME280;9738;51.654;14.238;2023-05-07T11:47:32;101349.50;;;11.35;100.00
19210;BME280;9738;51.654;14.238;2023-05-07T11:50:07;101345.84;;;11.36;100.00
19210;BME280;9738;51.654;14.238;2023-05-07T11:52:33;101349.19;;;11.29;100.00
19210;BME280;9738;51.654;14.238;2023-05-07T11:55:01;101346.34;;;11.21;100.00
19210;BME280;9738;51.654;14.238;2023-05-07T11:57:29;101344.38;;;11.23;100.00
19210;BME280;9738;51.654;14.238;2023-05-07T11:59:58;101348.59;;;11.25;100.00
19210;BME280;9738;51.654;14.238;2023-05-07T12:02:25;101350.03;;;11.29;100.00
19210;BME280;9738;51.654;14.238;2023-05-07T12:04:52;101349.91;;;11.31;100.00
19210;BME280;9738;51.654;14.238;2023-05-07T12:07:17;101358.34;;;11.26;100.00
19210;BME280;9738;51.654;14.238;2023-05-07T12:09:45;101350.13;;;11.18;100.00
19210;BME280;9738;51.654;14.238;2023-05-07T12:12:11;101358.97;;;11.19;100.00
19210;BME280;9738;51.654;14.238;2023-05-07T12:14:41;101362.97;;;11.24;100.00
19210;BME280;9738;51.654;14.238;2023-05-07T12:17:09;101362.09;;;11.14;100.00
19210;BME280;9738;51.654;14.238;2023-05-07T12:19:36;101366.97;;;11.09;100.00
19210;BME280;9738;51.654;14.238;2023-05-07T12:22:07;101372.03;;;11.12;100.00
19210;BME280;9738;51.654;14.238;2023-05-07T12:27:13;101368.38;;;11.13;100.00
19210;BME280;9738;51.654;14.238;2023-05-07T12:29:44;101373.72;;;11.13;100.00
19210;BME280;9738;51.654;14.238;2023-05-07T12:32:18;101380.34;;;11.09;100.00
19210;BME280;9738;51.654;14.238;2023-05-07T12:34:45;101382.03;;;11.10;100.00
19210;BME280;9738;51.654;14.238;2023-05-07T12:37:12;101387.84;;;11.15;100.00
19210;BME280;9738;51.654;14.238;2023-05-07T12:39:46;101376.47;;;11.23;100.00
19210;BME280;9738;51.654;14.238;2023-05-07T12:42:18;101381.47;;;11.37;100.00
19210;BME280;9738;51.654;14.238;2023-05-07T12:44:46;101385.28;;;11.44;100.00
19210;BME280;9738;51.654;14.238;2023-05-07T12:47:11;101379.09;;;11.44;100.00
19210;BME280;9738;51.654;14.238;2023-05-07T12:49:38;101379.00;;;11.45;100.00
19210;BME280;9738;51.654;14.238;2023-05-07T12:52:05;101380.06;;;11.33;100.00
19210;BME280;9738;51.654;14.238;2023-05-07T12:54:37;101383.44;;;11.35;100.00
19210;BME280;9738;51.654;14.238;2023-05-07T12:57:08;101384.00;;;11.38;100.00
19210;BME280;9738;51.654;14.238;2023-05-07T12:59:36;101383.75;;;11.42;100.00
19210;BME280;9738;51.654;14.238;2023-05-07T13:02:04;101378.72;;;11.48;100.00
19210;BME280;9738;51.654;14.238;2023-05-07T13:04:30;101380.25;;;11.51;100.00
19210;BME280;9738;51.654;14.238;2023-05-07T13:06:56;101374.66;;;11.54;100.00